createdAt,value
2023-04-30T00:00:36.979Z,12.40
2023-04-30T00:03:05.581Z,12.48
2023-04-30T00:05:34.941Z,12.58
2023-04-30T00:08:02.863Z,12.64
2023-04-30T00:10:30.760Z,12.75
2023-04-30T00:12:58.703Z,12.98
2023-04-30T00:15:26.909Z,12.89
2023-04-30T00:17:54.845Z,12.91
2023-04-30T00:20:22.819Z,13.11
2023-04-30T00:22:52.154Z,13.21
2023-04-30T00:25:21.153Z,13.19
2023-04-30T00:27:49.177Z,13.14
2023-04-30T00:30:17.108Z,13.01
2023-04-30T00:32:46.017Z,13.04
2023-04-30T00:35:14.098Z,13.01
2023-04-30T00:37:42.120Z,13.09
2023-04-30T00:40:12.619Z,13.07
2023-04-30T00:42:40.567Z,13.27
2023-04-30T00:45:09.750Z,13.38
2023-04-30T00:47:37.780Z,13.37
2023-04-30T00:50:06.401Z,13.39
2023-04-30T00:52:34.441Z,13.40
2023-04-30T00:55:02.398Z,13.07
2023-04-30T00:57:31.960Z,12.86
2023-04-30T01:00:00.829Z,12.81
2023-04-30T01:02:28.932Z,12.83
2023-04-30T01:04:57.641Z,12.94
2023-04-30T01:07:28.339Z,13.12
2023-04-30T01:09:56.493Z,13.20
2023-04-30T01:12:30.800Z,12.92
2023-04-30T01:15:07.946Z,12.97
2023-04-30T01:17:39.973Z,12.86
2023-04-30T01:20:11.288Z,13.07
2023-04-30T01:22:48.698Z,13.14
2023-04-30T01:25:42.762Z,13.25
2023-04-30T01:28:15.961Z,13.09
2023-04-30T01:30:46.221Z,13.12
2023-04-30T01:33:14.760Z,13.09
2023-04-30T01:36:06.756Z,13.18
2023-04-30T01:38:49.815Z,13.26
2023-04-30T01:41:30.811Z,13.20
2023-04-30T01:44:12.199Z,13.20
2023-04-30T01:46:41.616Z,13.09
2023-04-30T01:49:16.598Z,13.04
2023-04-30T01:51:47.377Z,13.03
2023-04-30T01:54:20.279Z,13.06
2023-04-30T01:56:58.604Z,13.13
2023-04-30T01:59:28.296Z,13.13
2023-04-30T02:01:57.816Z,13.05
2023-04-30T02:04:25.767Z,13.04
2023-04-30T02:06:53.760Z,12.94
2023-04-30T02:09:24.202Z,13.05
2023-04-30T02:11:52.335Z,13.05
2023-04-30T02:14:20.347Z,12.79
2023-04-30T02:16:49.689Z,12.81
2023-04-30T02:19:17.585Z,12.69
2023-04-30T02:21:45.487Z,12.78
2023-04-30T02:24:13.491Z,12.59
2023-04-30T02:26:41.477Z,12.66
2023-04-30T02:29:09.397Z,12.68
2023-04-30T02:31:37.332Z,12.65
2023-04-30T02:34:06.669Z,12.63
2023-04-30T02:36:36.713Z,12.77
2023-04-30T02:39:04.824Z,12.78
2023-04-30T02:41:32.794Z,12.77
2023-04-30T02:44:00.716Z,12.77
2023-04-30T02:46:28.702Z,12.63
2023-04-30T02:48:56.596Z,12.57
2023-04-30T02:51:25.919Z,12.55
2023-04-30T02:53:53.849Z,12.40
2023-04-30T02:56:21.849Z,12.28
2023-04-30T02:58:49.775Z,11.97
2023-04-30T03:01:17.834Z,11.39
2023-04-30T03:03:45.814Z,11.02
2023-04-30T03:06:13.742Z,11.40
2023-04-30T03:08:43.177Z,11.44
2023-04-30T03:11:11.193Z,11.34
2023-04-30T03:13:39.090Z,11.61
2023-04-30T03:16:07.198Z,11.70
2023-04-30T03:18:35.201Z,11.76
2023-04-30T03:21:03.174Z,11.88
2023-04-30T03:23:31.236Z,11.82
2023-04-30T03:26:00.757Z,11.77
2023-04-30T03:28:28.705Z,11.80
2023-04-30T03:30:56.690Z,11.90
2023-04-30T03:33:24.656Z,11.90
2023-04-30T03:35:53.455Z,11.94
2023-04-30T03:38:21.397Z,12.00
2023-04-30T03:40:49.348Z,12.19
2023-04-30T03:43:18.619Z,12.22
2023-04-30T03:45:47.881Z,11.98
2023-04-30T03:48:15.966Z,12.11
2023-04-30T03:50:43.956Z,11.97
2023-04-30T03:53:11.880Z,11.88
2023-04-30T03:55:40.122Z,11.94
2023-04-30T03:58:08.236Z,11.77
2023-04-30T04:00:37.800Z,11.98
2023-04-30T04:03:05.779Z,12.10
2023-04-30T04:05:33.692Z,12.08
2023-04-30T04:08:01.610Z,12.13
2023-04-30T04:10:29.801Z,12.25
2023-04-30T04:12:57.801Z,12.14
2023-04-30T04:15:25.748Z,12.10
2023-04-30T04:17:55.075Z,12.24
2023-04-30T04:20:23.105Z,12.28
2023-04-30T04:22:51.572Z,12.15
2023-04-30T04:25:20.737Z,12.15
2023-04-30T04:27:48.634Z,12.33
2023-04-30T04:30:16.948Z,12.36
2023-04-30T04:32:49.402Z,12.09
2023-04-30T04:35:19.800Z,11.99
2023-04-30T04:37:47.753Z,12.13
2023-04-30T04:40:15.621Z,12.10
2023-04-30T04:42:43.936Z,12.40
2023-04-30T04:45:12.282Z,12.44
2023-04-30T04:47:40.393Z,12.49
2023-04-30T04:50:09.881Z,12.60
2023-04-30T04:52:39.229Z,12.89
2023-04-30T04:55:07.920Z,13.01
2023-04-30T04:57:35.995Z,13.14
2023-04-30T05:00:06.352Z,13.12
2023-04-30T05:02:34.403Z,13.36
2023-04-30T05:05:03.122Z,13.34
2023-04-30T05:07:31.260Z,13.32
2023-04-30T05:10:00.547Z,13.24
2023-04-30T05:12:28.448Z,13.18
2023-04-30T05:14:56.376Z,13.70
2023-04-30T05:17:24.308Z,13.99
2023-04-30T05:19:53.330Z,14.37
2023-04-30T05:22:21.712Z,15.24
2023-04-30T05:24:51.357Z,15.78
2023-04-30T05:27:21.135Z,16.39
2023-04-30T05:29:49.096Z,18.03
2023-04-30T05:32:17.001Z,19.38
2023-04-30T05:34:44.893Z,20.20
2023-04-30T05:37:14.573Z,20.06
2023-04-30T05:39:42.469Z,18.93
2023-04-30T05:42:10.373Z,18.73
2023-04-30T05:44:39.629Z,19.55
2023-04-30T05:47:07.718Z,18.94
2023-04-30T05:49:36.363Z,18.69
2023-04-30T05:52:04.664Z,17.67
2023-04-30T05:54:32.666Z,18.74
2023-04-30T05:57:00.679Z,20.03
2023-04-30T05:59:28.644Z,20.28
2023-04-30T06:01:58.357Z,21.01
2023-04-30T06:04:26.366Z,21.35
2023-04-30T06:06:54.275Z,21.02
2023-04-30T06:09:22.172Z,19.96
2023-04-30T06:11:52.023Z,19.00
2023-04-30T06:14:21.962Z,18.43
2023-04-30T06:16:50.816Z,18.15
2023-04-30T06:19:20.958Z,18.05
2023-04-30T06:21:48.845Z,17.41
2023-04-30T06:24:16.822Z,16.74
2023-04-30T06:26:44.745Z,17.17
2023-04-30T06:29:12.732Z,17.51
2023-04-30T06:31:40.714Z,17.58
2023-04-30T06:34:08.968Z,17.35
2023-04-30T06:36:38.235Z,18.02
2023-04-30T06:39:06.660Z,18.00
2023-04-30T06:41:34.569Z,17.32
2023-04-30T06:44:02.526Z,17.31
2023-04-30T06:46:30.419Z,17.26
2023-04-30T06:48:58.411Z,17.47
2023-04-30T06:51:26.570Z,17.38
2023-04-30T06:53:56.217Z,17.51
2023-04-30T06:56:25.074Z,17.32
2023-04-30T06:58:53.030Z,17.23
2023-04-30T07:01:21.011Z,17.47
2023-04-30T07:03:49.020Z,17.72
2023-04-30T07:06:17.181Z,17.82
2023-04-30T07:08:45.129Z,17.80
2023-04-30T07:11:14.439Z,17.86
2023-04-30T07:13:42.355Z,17.66
2023-04-30T07:16:11.233Z,17.73
2023-04-30T07:18:40.284Z,17.87
2023-04-30T07:21:08.777Z,17.76
2023-04-30T07:23:36.770Z,17.92
2023-04-30T07:26:04.839Z,18.15
2023-04-30T07:28:34.174Z,18.10
2023-04-30T07:31:02.117Z,18.44
2023-04-30T07:33:30.509Z,18.49
2023-04-30T07:35:59.111Z,18.40
2023-04-30T07:38:27.050Z,18.46
2023-04-30T07:40:54.954Z,18.47
2023-04-30T07:43:22.882Z,18.58
2023-04-30T07:45:53.507Z,18.55
2023-04-30T07:48:21.504Z,18.58
2023-04-30T07:50:52.064Z,18.26
2023-04-30T07:53:20.902Z,18.69
2023-04-30T07:55:48.800Z,18.93
2023-04-30T07:58:16.689Z,18.23
2023-04-30T08:00:44.735Z,18.82
2023-04-30T08:03:14.072Z,18.74
2023-04-30T08:05:42.244Z,18.52
2023-04-30T08:08:10.172Z,18.64
2023-04-30T08:10:38.120Z,18.96
2023-04-30T08:13:06.271Z,18.98
2023-04-30T08:15:35.053Z,18.66
2023-04-30T08:18:04.032Z,18.66
2023-04-30T08:20:34.515Z,19.01
2023-04-30T08:23:03.107Z,19.26
2023-04-30T08:25:31.638Z,18.88
2023-04-30T08:27:59.861Z,18.90
2023-04-30T08:30:27.719Z,18.98
2023-04-30T08:32:57.536Z,19.26
2023-04-30T08:35:26.298Z,19.43
2023-04-30T08:37:55.525Z,19.53
2023-04-30T08:40:33.814Z,19.72
2023-04-30T08:43:12.189Z,19.98
2023-04-30T08:45:41.662Z,20.15
2023-04-30T08:48:12.379Z,20.20
2023-04-30T08:50:40.321Z,20.11
2023-04-30T08:53:12.490Z,20.27
2023-04-30T08:55:41.818Z,20.49
2023-04-30T08:58:10.483Z,20.33
2023-04-30T09:00:40.028Z,19.93
2023-04-30T09:03:09.555Z,20.23
2023-04-30T09:05:38.798Z,20.35
2023-04-30T09:08:08.803Z,20.77
2023-04-30T09:10:38.208Z,20.41
2023-04-30T09:13:08.953Z,19.68
2023-04-30T09:15:38.720Z,20.30
2023-04-30T09:18:11.754Z,20.42
2023-04-30T09:20:55.557Z,20.13
2023-04-30T09:23:23.882Z,19.92
2023-04-30T09:25:53.190Z,20.33
2023-04-30T09:28:23.861Z,20.75
2023-04-30T09:30:53.094Z,20.87
2023-04-30T09:33:21.484Z,20.92
2023-04-30T09:35:49.739Z,20.87
2023-04-30T09:38:28.472Z,20.89
2023-04-30T09:40:59.957Z,20.80
2023-04-30T09:43:28.041Z,20.72
2023-04-30T09:45:55.982Z,20.69
2023-04-30T09:48:25.091Z,20.99
2023-04-30T09:50:53.358Z,21.53
2023-04-30T09:53:21.758Z,21.43
2023-04-30T09:55:51.141Z,21.23
2023-04-30T09:58:21.043Z,21.16
2023-04-30T10:00:51.785Z,20.72
2023-04-30T10:03:22.346Z,20.34
2023-04-30T10:05:51.735Z,20.47
2023-04-30T10:08:24.426Z,20.31
2023-04-30T10:10:59.588Z,19.90
2023-04-30T10:13:32.530Z,19.96
2023-04-30T10:16:05.763Z,19.92
2023-04-30T10:18:37.566Z,19.67
2023-04-30T10:21:12.590Z,19.83
2023-04-30T10:23:42.206Z,19.93
2023-04-30T10:26:12.355Z,20.08
2023-04-30T10:28:42.930Z,19.96
2023-04-30T10:31:11.826Z,19.58
2023-04-30T10:33:49.915Z,19.84
2023-04-30T10:36:26.599Z,20.14
2023-04-30T10:38:55.294Z,20.14
2023-04-30T10:41:23.455Z,20.06
2023-04-30T10:43:52.831Z,20.36
2023-04-30T10:46:24.910Z,20.71
2023-04-30T10:48:55.056Z,20.70
2023-04-30T10:51:23.167Z,20.86
2023-04-30T10:53:53.044Z,21.04
2023-04-30T10:56:34.796Z,21.13
2023-04-30T10:59:04.133Z,21.21
2023-04-30T11:01:32.636Z,21.22
2023-04-30T11:04:08.288Z,21.37
2023-04-30T11:06:57.755Z,21.38
2023-04-30T11:09:38.555Z,21.49
2023-04-30T11:12:13.334Z,21.48
2023-04-30T11:14:44.151Z,21.58
2023-04-30T11:17:13.795Z,21.66
2023-04-30T11:19:49.688Z,21.68
2023-04-30T11:22:19.745Z,21.58
2023-04-30T11:24:55.073Z,21.06
2023-04-30T11:27:24.681Z,21.12
2023-04-30T11:29:55.527Z,21.25
2023-04-30T11:32:26.029Z,21.42
2023-04-30T11:34:54.695Z,21.80
2023-04-30T11:37:31.097Z,21.63
2023-04-30T11:40:01.328Z,21.83
2023-04-30T11:42:31.278Z,21.57
2023-04-30T11:45:06.900Z,20.67
2023-04-30T11:47:45.490Z,21.33
2023-04-30T11:50:15.310Z,21.49
2023-04-30T11:52:49.681Z,21.48
2023-04-30T11:55:19.456Z,21.20
2023-04-30T11:57:49.329Z,21.43
2023-04-30T12:00:20.325Z,21.49
2023-04-30T12:02:50.492Z,21.87
2023-04-30T12:05:20.169Z,21.97
2023-04-30T12:07:49.916Z,22.04
2023-04-30T12:10:19.851Z,21.79
2023-04-30T12:12:50.734Z,22.19
2023-04-30T12:15:26.732Z,21.73
2023-04-30T12:17:56.789Z,21.71
2023-04-30T12:20:28.396Z,21.77
2023-04-30T12:22:56.734Z,21.63
2023-04-30T12:25:25.188Z,21.54
2023-04-30T12:27:54.286Z,21.30
2023-04-30T12:30:27.019Z,20.37
2023-04-30T12:32:58.902Z,18.29
2023-04-30T12:35:31.144Z,17.28
2023-04-30T12:38:04.465Z,16.65
2023-04-30T12:40:32.858Z,15.94
2023-04-30T12:43:04.556Z,15.40
2023-04-30T12:45:48.497Z,15.30
2023-04-30T12:48:17.343Z,15.12
2023-04-30T12:50:50.077Z,14.84
2023-04-30T12:53:18.120Z,14.54
2023-04-30T12:56:06.057Z,14.45
2023-04-30T12:58:34.047Z,14.57
2023-04-30T13:01:03.464Z,14.64
2023-04-30T13:03:31.476Z,14.73
2023-04-30T13:06:01.708Z,14.83
2023-04-30T13:08:29.657Z,14.81
2023-04-30T13:10:57.685Z,14.94
2023-04-30T13:13:25.815Z,14.53
2023-04-30T13:15:53.983Z,14.53
2023-04-30T13:18:23.287Z,14.83
2023-04-30T13:20:51.974Z,14.69
2023-04-30T13:23:19.925Z,14.89
2023-04-30T13:25:47.870Z,14.75
2023-04-30T13:28:16.330Z,14.92
2023-04-30T13:30:44.307Z,14.69
2023-04-30T13:33:12.718Z,14.54
2023-04-30T13:35:42.236Z,14.43
2023-04-30T13:38:10.299Z,14.06
2023-04-30T13:40:38.223Z,13.91
2023-04-30T13:43:06.216Z,13.94
2023-04-30T13:45:34.058Z,14.00
2023-04-30T13:48:02.572Z,13.91
2023-04-30T13:50:30.530Z,13.90
2023-04-30T13:52:59.990Z,13.96
2023-04-30T13:55:28.177Z,14.17
2023-04-30T13:57:56.992Z,14.38
2023-04-30T14:00:24.967Z,14.56
2023-04-30T14:02:54.159Z,14.74
2023-04-30T14:05:22.123Z,14.91
2023-04-30T14:07:49.997Z,14.96
2023-04-30T14:10:19.542Z,14.82
2023-04-30T14:12:48.872Z,15.07
2023-04-30T14:15:17.045Z,14.93
2023-04-30T14:17:45.061Z,14.90
2023-04-30T14:20:14.229Z,14.82
2023-04-30T14:22:42.323Z,14.84
2023-04-30T14:25:10.870Z,14.73
2023-04-30T14:27:41.930Z,14.97
2023-04-30T14:30:10.501Z,14.88
2023-04-30T14:32:38.759Z,14.92
2023-04-30T14:35:07.904Z,15.05
2023-04-30T14:37:36.947Z,15.17
2023-04-30T14:40:07.985Z,15.38
2023-04-30T14:42:35.994Z,15.81
2023-04-30T14:45:06.010Z,16.16
2023-04-30T14:47:33.994Z,16.31
2023-04-30T14:50:02.600Z,16.53
2023-04-30T14:52:30.604Z,16.67
2023-04-30T14:54:58.546Z,16.77
2023-04-30T14:57:27.760Z,16.89
2023-04-30T14:59:57.841Z,17.03
2023-04-30T15:02:27.309Z,17.09
2023-04-30T15:04:55.298Z,17.15
2023-04-30T15:07:23.158Z,17.19
2023-04-30T15:09:52.856Z,17.31
2023-04-30T15:12:22.406Z,17.39
2023-04-30T15:14:50.544Z,17.42
2023-04-30T15:17:18.583Z,17.45
2023-04-30T15:19:47.918Z,17.47
2023-04-30T15:22:16.333Z,17.52
2023-04-30T15:24:44.306Z,17.58
2023-04-30T15:27:12.664Z,17.60
2023-04-30T15:29:41.390Z,17.56
2023-04-30T15:32:09.256Z,17.52
2023-04-30T15:34:37.154Z,17.55
2023-04-30T15:37:06.590Z,17.62
2023-04-30T15:39:35.224Z,17.59
2023-04-30T15:42:03.397Z,17.34
2023-04-30T15:44:31.320Z,17.36
2023-04-30T15:46:59.771Z,17.51
2023-04-30T15:49:27.709Z,17.52
2023-04-30T15:51:55.645Z,17.37
2023-04-30T15:54:24.956Z,17.09
2023-04-30T15:56:53.300Z,17.19
2023-04-30T15:59:21.196Z,17.14
2023-04-30T16:01:49.179Z,17.07
2023-04-30T16:04:17.204Z,17.08
2023-04-30T16:06:45.404Z,17.14
2023-04-30T16:09:17.425Z,17.22
2023-04-30T16:11:46.996Z,17.30
2023-04-30T16:14:14.915Z,17.46
2023-04-30T16:16:43.002Z,17.45
2023-04-30T16:19:12.473Z,17.36
2023-04-30T16:21:41.392Z,17.27
2023-04-30T16:24:10.414Z,17.15
2023-04-30T16:26:38.418Z,17.16
2023-04-30T16:29:07.674Z,17.07
2023-04-30T16:31:35.847Z,17.03
2023-04-30T16:34:03.823Z,17.02
2023-04-30T16:36:32.786Z,17.03
2023-04-30T16:39:00.706Z,17.08
2023-04-30T16:41:28.676Z,17.10
2023-04-30T16:43:56.757Z,16.76
2023-04-30T16:46:26.127Z,16.43
2023-04-30T16:48:54.480Z,16.21
2023-04-30T16:51:22.427Z,16.00
2023-04-30T16:53:50.456Z,16.05
2023-04-30T16:56:18.438Z,15.84
2023-04-30T16:58:46.849Z,15.51
2023-04-30T17:01:14.851Z,15.27
2023-04-30T17:03:44.422Z,15.30
2023-04-30T17:06:14.234Z,15.13
2023-04-30T17:08:42.291Z,15.24
2023-04-30T17:11:10.267Z,15.17
2023-04-30T17:13:38.803Z,14.86
2023-04-30T17:16:07.033Z,14.79
2023-04-30T17:18:35.211Z,14.82
2023-04-30T17:21:08.319Z,14.70
2023-04-30T17:23:36.233Z,14.70
2023-04-30T17:26:04.559Z,14.68
2023-04-30T17:28:32.853Z,14.74
2023-04-30T17:31:03.334Z,14.56
2023-04-30T17:33:31.269Z,14.70
2023-04-30T17:35:59.943Z,14.66
2023-04-30T17:38:29.226Z,14.76
2023-04-30T17:40:57.867Z,14.76
2023-04-30T17:43:25.951Z,14.64
2023-04-30T17:45:54.495Z,14.65
2023-04-30T17:48:22.445Z,14.68
2023-04-30T17:50:50.522Z,14.59
2023-04-30T17:53:18.434Z,14.60
2023-04-30T17:55:47.667Z,14.53
2023-04-30T17:58:15.940Z,14.59
2023-04-30T18:00:44.770Z,14.52
2023-04-30T18:03:20.777Z,14.42
2023-04-30T18:05:48.924Z,14.43
2023-04-30T18:08:17.120Z,14.40
2023-04-30T18:10:45.116Z,14.21
2023-04-30T18:13:16.365Z,14.26
2023-04-30T18:15:46.992Z,14.22
2023-04-30T18:18:15.446Z,14.28
2023-04-30T18:20:43.538Z,14.36
2023-04-30T18:23:13.430Z,14.44
2023-04-30T18:25:42.507Z,14.28
2023-04-30T18:28:10.995Z,14.39
2023-04-30T18:30:40.357Z,14.31
2023-04-30T18:33:09.005Z,14.14
2023-04-30T18:35:37.597Z,14.16
2023-04-30T18:38:08.135Z,14.12
2023-04-30T18:40:36.191Z,14.15
2023-04-30T18:43:05.334Z,14.11
2023-04-30T18:45:33.218Z,14.08
2023-04-30T18:48:02.528Z,14.20
2023-04-30T18:50:30.412Z,14.22
2023-04-30T18:52:58.300Z,14.13
2023-04-30T18:55:26.294Z,14.01
2023-04-30T18:57:56.436Z,13.91
2023-04-30T19:00:24.552Z,14.03
2023-04-30T19:02:52.847Z,13.83
2023-04-30T19:05:22.239Z,13.94
2023-04-30T19:07:50.101Z,14.04
2023-04-30T19:10:18.088Z,13.90
2023-04-30T19:12:46.133Z,14.00
2023-04-30T19:15:15.075Z,14.03
2023-04-30T19:17:43.286Z,14.02
2023-04-30T19:20:12.548Z,14.13
2023-04-30T19:22:41.982Z,14.25
2023-04-30T19:25:10.972Z,14.12
2023-04-30T19:27:38.835Z,13.84
2023-04-30T19:30:08.082Z,13.39
2023-04-30T19:32:36.990Z,13.15
2023-04-30T19:35:08.264Z,12.84
2023-04-30T19:37:36.416Z,12.69
2023-04-30T19:40:10.367Z,12.40
2023-04-30T19:42:38.889Z,12.21
2023-04-30T19:45:08.062Z,11.97
2023-04-30T19:47:36.267Z,11.93
2023-04-30T19:50:04.266Z,11.89
2023-04-30T19:52:32.187Z,11.97
2023-04-30T19:55:00.131Z,11.93
2023-04-30T19:57:33.082Z,11.96
2023-04-30T20:00:01.242Z,11.89
2023-04-30T20:02:29.315Z,12.03
2023-04-30T20:04:58.222Z,12.15
2023-04-30T20:07:26.208Z,12.20
2023-04-30T20:09:54.302Z,11.99
2023-04-30T20:12:22.534Z,12.05
2023-04-30T20:14:51.835Z,11.91
2023-04-30T20:17:19.775Z,12.03
2023-04-30T20:19:47.620Z,11.99
2023-04-30T20:22:15.568Z,11.99
2023-04-30T20:24:44.859Z,11.89
2023-04-30T20:27:13.450Z,11.66
2023-04-30T20:29:41.591Z,11.71
2023-04-30T20:32:10.910Z,11.59
2023-04-30T20:34:39.032Z,11.74
2023-04-30T20:37:06.960Z,11.92
2023-04-30T20:39:34.827Z,11.80
2023-04-30T20:42:03.955Z,11.75
2023-04-30T20:44:31.903Z,11.67
2023-04-30T20:46:59.932Z,11.61
2023-04-30T20:49:29.263Z,11.55
2023-04-30T20:51:57.342Z,11.48
2023-04-30T20:54:25.309Z,11.69
2023-04-30T20:56:53.297Z,11.95
2023-04-30T20:59:21.263Z,11.92
2023-04-30T21:01:49.240Z,11.83
2023-04-30T21:04:17.115Z,11.78
2023-04-30T21:06:46.441Z,11.68
2023-04-30T21:09:15.728Z,11.70
2023-04-30T21:11:43.726Z,11.69
2023-04-30T21:14:11.686Z,11.60
2023-04-30T21:16:40.692Z,11.75
2023-04-30T21:19:08.768Z,11.77
2023-04-30T21:21:36.746Z,11.67
2023-04-30T21:24:06.408Z,11.67
2023-04-30T21:26:34.482Z,11.68
2023-04-30T21:29:03.372Z,11.81
2023-04-30T21:31:31.816Z,11.71
2023-04-30T21:34:00.064Z,11.70
2023-04-30T21:36:29.186Z,11.67
2023-04-30T21:38:58.147Z,11.70
2023-04-30T21:41:28.127Z,11.78
2023-04-30T21:43:56.405Z,11.78
2023-04-30T21:46:24.575Z,11.84
2023-04-30T21:48:52.649Z,11.78
2023-04-30T21:51:20.641Z,11.81
2023-04-30T21:53:48.564Z,11.87
2023-04-30T21:56:16.964Z,11.85
2023-04-30T21:58:46.298Z,11.86
2023-04-30T22:01:14.245Z,11.71
2023-04-30T22:03:43.248Z,11.77
2023-04-30T22:06:11.277Z,11.83
2023-04-30T22:08:39.215Z,11.83
2023-04-30T22:11:07.149Z,11.76
2023-04-30T22:13:34.985Z,11.71
2023-04-30T22:16:04.252Z,11.95
2023-04-30T22:18:32.138Z,11.74
2023-04-30T22:21:00.597Z,11.43
2023-04-30T22:23:28.831Z,11.57
2023-04-30T22:25:56.899Z,11.84
2023-04-30T22:28:24.791Z,11.78
2023-04-30T22:30:59.505Z,11.78
2023-04-30T22:33:28.799Z,11.67
2023-04-30T22:35:57.190Z,11.62
2023-04-30T22:38:25.069Z,11.42
2023-04-30T22:40:53.184Z,11.53
2023-04-30T22:43:21.599Z,11.51
2023-04-30T22:45:49.875Z,11.47
2023-04-30T22:48:18.746Z,11.39
2023-04-30T22:50:48.435Z,11.50
2023-04-30T22:53:16.377Z,11.36
2023-04-30T22:55:44.862Z,11.17
2023-04-30T22:58:12.952Z,10.95
2023-04-30T23:00:41.061Z,10.76
2023-04-30T23:03:09.063Z,10.68
2023-04-30T23:05:36.964Z,10.68
2023-04-30T23:08:06.498Z,10.83
2023-04-30T23:10:34.392Z,10.88
2023-04-30T23:13:02.422Z,10.99
2023-04-30T23:15:30.410Z,10.85
2023-04-30T23:18:00.424Z,10.80
2023-04-30T23:20:28.570Z,10.91
2023-04-30T23:22:56.690Z,11.14
2023-04-30T23:25:26.007Z,11.18
2023-04-30T23:27:53.974Z,11.25
2023-04-30T23:30:23.561Z,11.41
2023-04-30T23:32:51.553Z,11.38
2023-04-30T23:35:19.611Z,11.35
2023-04-30T23:37:47.573Z,11.49
2023-04-30T23:40:15.723Z,11.67
2023-04-30T23:42:44.941Z,11.62
2023-04-30T23:45:12.971Z,11.57
2023-04-30T23:47:40.974Z,11.47
2023-04-30T23:50:10.301Z,11.34
2023-04-30T23:52:38.558Z,11.41
2023-04-30T23:55:07.413Z,11.44
2023-04-30T23:57:35.650Z,11.19
